createdAt,value
2017-06-15T00:00:31.692Z,0
2017-06-15T00:01:31.997Z,0
2017-06-15T00:02:31.688Z,0
2017-06-15T00:03:31.996Z,0
2017-06-15T00:04:31.692Z,0
2017-06-15T00:05:31.994Z,0
2017-06-15T00:06:31.380Z,0
2017-06-15T00:07:31.996Z,0
2017-06-15T00:08:31.991Z,0
2017-06-15T00:09:31.984Z,0
2017-06-15T00:10:31.986Z,0
2017-06-15T00:11:31.985Z,0
2017-06-15T00:12:31.371Z,0
2017-06-15T00:13:31.685Z,0
2017-06-15T00:14:31.980Z,0
2017-06-15T00:15:31.990Z,0
2017-06-15T00:16:31.978Z,0
2017-06-15T00:17:31.984Z,0
2017-06-15T00:18:31.978Z,0
2017-06-15T00:19:31.670Z,0
2017-06-15T00:20:31.972Z,0
2017-06-15T00:21:31.668Z,0
2017-06-15T00:22:31.978Z,0
2017-06-15T00:23:31.972Z,0
2017-06-15T00:24:31.664Z,0
2017-06-15T00:25:31.669Z,0
2017-06-15T00:26:31.354Z,0
2017-06-15T00:27:31.960Z,0
2017-06-15T00:28:31.963Z,0
2017-06-15T00:29:31.959Z,0
2017-06-15T00:30:31.959Z,0
2017-06-15T00:31:31.956Z,0
2017-06-15T00:32:31.651Z,0
2017-06-15T00:33:31.654Z,0
2017-06-15T00:34:31.995Z,0
2017-06-15T00:35:31.649Z,0
2017-06-15T00:36:31.958Z,0
2017-06-15T00:37:31.680Z,0
2017-06-15T00:38:31.950Z,0
2017-06-15T00:39:31.950Z,0
2017-06-15T00:40:31.640Z,0
2017-06-15T00:41:31.338Z,0
2017-06-15T00:42:31.944Z,0
2017-06-15T00:43:31.944Z,0
2017-06-15T00:44:31.943Z,0
2017-06-15T00:45:31.941Z,0
2017-06-15T00:46:31.946Z,0
2017-06-15T00:47:31.634Z,0
2017-06-15T00:48:31.630Z,0
2017-06-15T00:49:31.322Z,0
2017-06-15T00:50:31.323Z,0
2017-06-15T00:51:31.933Z,0
2017-06-15T00:52:31.935Z,0
2017-06-15T00:53:31.320Z,0
2017-06-15T00:54:31.939Z,0
2017-06-15T00:55:31.927Z,0
2017-06-15T00:56:31.927Z,0
2017-06-15T00:57:31.921Z,0
2017-06-15T00:58:31.921Z,0
2017-06-15T00:59:31.922Z,0
2017-06-15T01:00:31.614Z,0
2017-06-15T01:01:31.919Z,0
2017-06-15T01:02:31.614Z,0
2017-06-15T01:03:31.303Z,0
2017-06-15T01:04:31.919Z,0
2017-06-15T01:05:31.920Z,0
2017-06-15T01:06:31.918Z,0
2017-06-15T01:07:31.908Z,0
2017-06-15T01:08:31.908Z,0
2017-06-15T01:09:31.914Z,0
2017-06-15T01:10:31.910Z,0
2017-06-15T01:11:31.907Z,0
2017-06-15T01:12:31.599Z,0
2017-06-15T01:13:31.288Z,0
2017-06-15T01:14:31.597Z,0
2017-06-15T01:15:31.900Z,0
2017-06-15T01:16:31.908Z,0
2017-06-15T01:17:31.899Z,0
2017-06-15T01:18:31.287Z,0
2017-06-15T01:19:31.901Z,0
2017-06-15T01:20:31.902Z,0
2017-06-15T01:21:31.893Z,0
2017-06-15T01:22:31.894Z,0
2017-06-15T01:23:31.897Z,0
2017-06-15T01:24:31.584Z,0
2017-06-15T01:25:31.579Z,0
2017-06-15T01:26:31.582Z,0
2017-06-15T01:27:31.579Z,0
2017-06-15T01:28:31.884Z,0
2017-06-15T01:29:31.883Z,0
2017-06-15T01:30:31.573Z,0
2017-06-15T01:31:31.573Z,0
2017-06-15T01:32:31.878Z,0
2017-06-15T01:33:31.875Z,0
2017-06-15T01:34:31.567Z,0
2017-06-15T01:35:31.263Z,0
2017-06-15T01:36:31.573Z,0
2017-06-15T01:37:31.876Z,0
2017-06-15T01:38:31.563Z,0
2017-06-15T01:39:31.868Z,0
2017-06-15T01:40:31.867Z,0
2017-06-15T01:41:31.558Z,0
2017-06-15T01:42:31.565Z,0
2017-06-15T01:43:31.560Z,0
2017-06-15T01:44:31.862Z,0
2017-06-15T01:45:31.856Z,0
2017-06-15T01:46:31.577Z,0
2017-06-15T01:47:31.861Z,0
2017-06-15T01:48:31.856Z,0
2017-06-15T01:49:31.551Z,0
2017-06-15T01:50:31.854Z,0
2017-06-15T01:51:31.883Z,0
2017-06-15T01:52:31.850Z,0
2017-06-15T01:53:31.540Z,0
2017-06-15T01:54:31.845Z,0
2017-06-15T01:55:31.536Z,0
2017-06-15T01:56:31.844Z,0
2017-06-15T01:57:31.537Z,0
2017-06-15T01:58:31.533Z,0
2017-06-15T01:59:31.834Z,0
2017-06-15T02:00:31.840Z,0
2017-06-15T02:01:31.837Z,0
2017-06-15T02:02:31.833Z,0
2017-06-15T02:03:31.831Z,0
2017-06-15T02:04:31.833Z,0
2017-06-15T02:05:31.832Z,0
2017-06-15T02:06:31.828Z,0
2017-06-15T02:07:31.831Z,0
2017-06-15T02:08:31.826Z,0
2017-06-15T02:09:31.825Z,0
2017-06-15T02:10:31.822Z,0
2017-06-15T02:11:31.823Z,0
2017-06-15T02:12:31.516Z,0
2017-06-15T02:13:31.204Z,0
2017-06-15T02:14:31.818Z,0
2017-06-15T02:15:31.814Z,0
2017-06-15T02:16:31.817Z,0
2017-06-15T02:17:31.814Z,0
2017-06-15T02:18:31.810Z,0
2017-06-15T02:19:31.813Z,0
2017-06-15T02:20:31.811Z,0
2017-06-15T02:21:31.197Z,0
2017-06-15T02:22:31.809Z,0
2017-06-15T02:23:31.809Z,0
2017-06-15T02:24:31.803Z,0
2017-06-15T02:25:31.497Z,0
2017-06-15T02:26:31.497Z,0
2017-06-15T02:27:31.492Z,0
2017-06-15T02:28:31.533Z,0
2017-06-15T02:29:31.188Z,0
2017-06-15T02:30:31.491Z,0
2017-06-15T02:31:31.186Z,0
2017-06-15T02:32:31.486Z,0
2017-06-15T02:33:31.830Z,0
2017-06-15T02:34:31.793Z,0
2017-06-15T02:35:31.175Z,0
2017-06-15T02:36:31.480Z,0
2017-06-15T02:37:31.784Z,0
2017-06-15T02:38:31.782Z,0
2017-06-15T02:39:31.784Z,0
2017-06-15T02:40:31.785Z,0
2017-06-15T02:41:31.783Z,0
2017-06-15T02:42:31.782Z,0
2017-06-15T02:43:31.791Z,0
2017-06-15T02:44:31.468Z,0
2017-06-15T02:45:31.776Z,0
2017-06-15T02:46:31.770Z,0
2017-06-15T02:47:31.767Z,0
2017-06-15T02:48:31.463Z,0
2017-06-15T02:49:31.461Z,0
2017-06-15T02:50:31.463Z,0
2017-06-15T02:51:31.765Z,4
2017-06-15T02:52:31.458Z,4
2017-06-15T02:53:31.452Z,4
2017-06-15T02:54:31.758Z,0
2017-06-15T02:55:31.454Z,4
2017-06-15T02:56:31.155Z,4
2017-06-15T02:57:31.759Z,4
2017-06-15T02:58:31.756Z,4
2017-06-15T02:59:31.753Z,4
2017-06-15T03:00:31.754Z,4
2017-06-15T03:01:31.447Z,4
2017-06-15T03:02:31.754Z,8
2017-06-15T03:03:31.753Z,12
2017-06-15T03:04:31.438Z,8
2017-06-15T03:05:31.751Z,12
2017-06-15T03:06:31.780Z,12
2017-06-15T03:07:31.747Z,16
2017-06-15T03:08:31.437Z,16
2017-06-15T03:09:31.431Z,24
2017-06-15T03:10:31.736Z,24
2017-06-15T03:11:31.737Z,28
2017-06-15T03:12:31.734Z,32
2017-06-15T03:13:31.424Z,40
2017-06-15T03:14:31.123Z,44
2017-06-15T03:15:31.726Z,48
2017-06-15T03:16:31.730Z,56
2017-06-15T03:17:31.419Z,60
2017-06-15T03:18:31.422Z,68
2017-06-15T03:19:31.720Z,76
2017-06-15T03:20:31.724Z,84
2017-06-15T03:21:31.416Z,88
2017-06-15T03:22:31.415Z,96
2017-06-15T03:23:31.716Z,104
2017-06-15T03:24:31.719Z,112
2017-06-15T03:25:31.412Z,116
2017-06-15T03:26:31.407Z,124
2017-06-15T03:27:31.711Z,128
2017-06-15T03:28:31.710Z,140
2017-06-15T03:29:31.713Z,144
2017-06-15T03:30:31.402Z,152
2017-06-15T03:31:31.406Z,164
2017-06-15T03:32:31.708Z,172
2017-06-15T03:33:31.708Z,180
2017-06-15T03:34:31.703Z,192
2017-06-15T03:35:31.387Z,204
2017-06-15T03:36:31.093Z,212
2017-06-15T03:37:31.387Z,224
2017-06-15T03:38:31.388Z,232
2017-06-15T03:39:31.695Z,232
2017-06-15T03:40:31.080Z,232
2017-06-15T03:41:31.387Z,228
2017-06-15T03:42:31.688Z,224
2017-06-15T03:43:31.686Z,228
2017-06-15T03:44:31.684Z,228
2017-06-15T03:45:31.381Z,228
2017-06-15T03:46:31.684Z,240
2017-06-15T03:47:31.683Z,260
2017-06-15T03:48:31.678Z,280
2017-06-15T03:49:31.371Z,304
2017-06-15T03:50:31.679Z,332
2017-06-15T03:51:31.678Z,352
2017-06-15T03:52:31.672Z,372
2017-06-15T03:53:31.371Z,392
2017-06-15T03:54:31.671Z,432
2017-06-15T03:55:31.364Z,476
2017-06-15T03:56:31.670Z,504
2017-06-15T03:57:31.667Z,532
2017-06-15T03:58:31.360Z,556
2017-06-15T03:59:31.660Z,576
2017-06-15T04:00:31.366Z,592
2017-06-15T04:01:31.662Z,608
2017-06-15T04:02:31.363Z,608
2017-06-15T04:03:31.350Z,620
2017-06-15T04:04:31.664Z,608
2017-06-15T04:05:31.653Z,608
2017-06-15T04:06:31.654Z,604
2017-06-15T04:07:31.651Z,608
2017-06-15T04:08:31.345Z,628
2017-06-15T04:09:31.650Z,652
2017-06-15T04:10:31.342Z,664
2017-06-15T04:11:31.031Z,680
2017-06-15T04:12:31.644Z,696
2017-06-15T04:13:31.646Z,736
2017-06-15T04:14:31.641Z,772
2017-06-15T04:15:31.640Z,752
2017-06-15T04:16:31.638Z,844
2017-06-15T04:17:31.665Z,844
2017-06-15T04:18:31.637Z,876
2017-06-15T04:19:31.636Z,872
2017-06-15T04:20:31.634Z,856
2017-06-15T04:21:31.025Z,856
2017-06-15T04:22:31.637Z,900
2017-06-15T04:23:31.628Z,928
2017-06-15T04:24:31.628Z,968
2017-06-15T04:25:31.626Z,1016
2017-06-15T04:26:31.318Z,1060
2017-06-15T04:27:31.627Z,1100
2017-06-15T04:28:31.317Z,1148
2017-06-15T04:29:31.622Z,1196
2017-06-15T04:30:31.623Z,1248
2017-06-15T04:31:31.314Z,1304
2017-06-15T04:32:31.314Z,1360
2017-06-15T04:33:31.613Z,1428
2017-06-15T04:34:31.308Z,1508
2017-06-15T04:35:31.306Z,1576
2017-06-15T04:36:31.612Z,1636
2017-06-15T04:37:31.308Z,1692
2017-06-15T04:38:31.608Z,1756
2017-06-15T04:39:31.606Z,1816
2017-06-15T04:40:31.609Z,1884
2017-06-15T04:41:31.608Z,2056
2017-06-15T04:42:31.298Z,2088
2017-06-15T04:43:30.997Z,2156
2017-06-15T04:44:31.604Z,2260
2017-06-15T04:45:31.604Z,2688
2017-06-15T04:46:31.604Z,3580
2017-06-15T04:47:31.296Z,4040
2017-06-15T04:48:31.593Z,4132
2017-06-15T04:49:31.597Z,4340
2017-06-15T04:50:31.594Z,4932
2017-06-15T04:51:31.600Z,4928
2017-06-15T04:52:31.289Z,4988
2017-06-15T04:53:31.589Z,5376
2017-06-15T04:54:31.284Z,5432
2017-06-15T04:55:30.981Z,5728
2017-06-15T04:56:30.985Z,6228
2017-06-15T04:57:31.590Z,6440
2017-06-15T04:58:31.588Z,6540
2017-06-15T04:59:31.281Z,6632
2017-06-15T05:00:31.583Z,6600
2017-06-15T05:01:31.587Z,6760
2017-06-15T05:02:31.590Z,6900
2017-06-15T05:03:31.586Z,6940
2017-06-15T05:04:31.585Z,6964
2017-06-15T05:05:31.579Z,7348
2017-06-15T05:06:31.585Z,7900
2017-06-15T05:07:31.584Z,8004
2017-06-15T05:08:31.589Z,7896
2017-06-15T05:09:31.587Z,7832
2017-06-15T05:10:31.585Z,8196
2017-06-15T05:11:31.584Z,8112
2017-06-15T05:12:31.637Z,8404
2017-06-15T05:13:31.587Z,8624
2017-06-15T05:14:31.282Z,8556
2017-06-15T05:15:31.586Z,8400
2017-06-15T05:16:30.975Z,8144
2017-06-15T05:17:31.279Z,8316
2017-06-15T05:18:31.284Z,7988
2017-06-15T05:19:31.585Z,8168
2017-06-15T05:20:31.286Z,8544
2017-06-15T05:21:31.595Z,8368
2017-06-15T05:22:31.592Z,8204
2017-06-15T05:23:31.599Z,8680
2017-06-15T05:24:31.594Z,8684
2017-06-15T05:25:31.288Z,8676
2017-06-15T05:26:31.595Z,9448
2017-06-15T05:27:31.594Z,10248
2017-06-15T05:28:31.598Z,10800
2017-06-15T05:29:31.296Z,11124
2017-06-15T05:30:30.992Z,11656
2017-06-15T05:31:30.992Z,11696
2017-06-15T05:32:31.606Z,12140
2017-06-15T05:33:30.990Z,12736
2017-06-15T05:34:31.301Z,13312
2017-06-15T05:35:31.609Z,13312
2017-06-15T05:36:31.610Z,13472
2017-06-15T05:37:31.616Z,13888
2017-06-15T05:38:31.303Z,14208
2017-06-15T05:39:31.000Z,14016
2017-06-15T05:40:31.615Z,14112
2017-06-15T05:41:31.618Z,14304
2017-06-15T05:42:31.009Z,13600
2017-06-15T05:43:31.316Z,14432
2017-06-15T05:44:31.317Z,15008
2017-06-15T05:45:31.627Z,15264
2017-06-15T05:46:31.630Z,15424
2017-06-15T05:47:31.635Z,15968
2017-06-15T05:48:31.632Z,16544
2017-06-15T05:49:31.335Z,16512
2017-06-15T05:50:31.333Z,16512
2017-06-15T05:51:31.340Z,16992
2017-06-15T05:52:31.644Z,17536
2017-06-15T05:53:31.649Z,17728
2017-06-15T05:54:31.344Z,18080
2017-06-15T05:55:31.346Z,19200
2017-06-15T05:56:31.655Z,19552
2017-06-15T05:57:31.661Z,20064
2017-06-15T05:58:31.053Z,20896
2017-06-15T05:59:31.357Z,20640
2017-06-15T06:00:31.668Z,20992
2017-06-15T06:01:31.676Z,21152
2017-06-15T06:02:31.370Z,21600
2017-06-15T06:03:31.674Z,21760
2017-06-15T06:04:31.679Z,21472
2017-06-15T06:05:31.384Z,21952
2017-06-15T06:06:31.692Z,22016
2017-06-15T06:07:31.692Z,21056
2017-06-15T06:08:31.701Z,21152
2017-06-15T06:09:31.394Z,22112
2017-06-15T06:10:31.403Z,22944
2017-06-15T06:11:31.401Z,24288
2017-06-15T06:12:31.710Z,24032
2017-06-15T06:13:31.721Z,24288
2017-06-15T06:14:31.413Z,24096
2017-06-15T06:15:31.726Z,23552
2017-06-15T06:16:31.729Z,23488
2017-06-15T06:17:31.428Z,24960
2017-06-15T06:18:31.429Z,24960
2017-06-15T06:19:31.433Z,24800
2017-06-15T06:20:31.744Z,24864
2017-06-15T06:21:31.450Z,24288
2017-06-15T06:22:31.755Z,24576
2017-06-15T06:23:31.758Z,24448
2017-06-15T06:24:31.763Z,24736
2017-06-15T06:25:31.456Z,25120
2017-06-15T06:26:31.772Z,24736
2017-06-15T06:27:31.166Z,23776
2017-06-15T06:28:31.781Z,21920
2017-06-15T06:29:31.787Z,22688
2017-06-15T06:30:31.792Z,24512
2017-06-15T06:31:31.790Z,25440
2017-06-15T06:32:31.182Z,26272
2017-06-15T06:33:31.802Z,26656
2017-06-15T06:34:31.805Z,26464
2017-06-15T06:35:31.501Z,26400
2017-06-15T06:36:31.203Z,27424
2017-06-15T06:37:31.205Z,27232
2017-06-15T06:38:31.823Z,26816
2017-06-15T06:39:31.826Z,26144
2017-06-15T06:40:31.722Z,26912
2017-06-15T06:41:31.530Z,28128
2017-06-15T06:42:31.532Z,28544
2017-06-15T06:43:31.840Z,28608
2017-06-15T06:44:31.847Z,27808
2017-06-15T06:45:31.238Z,27744
2017-06-15T06:46:31.549Z,27264
2017-06-15T06:47:31.550Z,28256
2017-06-15T06:48:31.861Z,27712
2017-06-15T06:49:31.555Z,27712
2017-06-15T06:50:31.872Z,28256
2017-06-15T06:51:31.567Z,28128
2017-06-15T06:52:31.879Z,27328
2017-06-15T06:53:31.616Z,25888
2017-06-15T06:54:31.270Z,25792
2017-06-15T06:55:31.278Z,26560
2017-06-15T06:56:31.583Z,26624
2017-06-15T06:57:31.592Z,26528
2017-06-15T06:58:31.592Z,26144
2017-06-15T06:59:31.600Z,26080
2017-06-15T07:00:31.907Z,25184
2017-06-15T07:01:31.907Z,27008
2017-06-15T07:02:31.912Z,27968
2017-06-15T07:03:31.913Z,26208
2017-06-15T07:04:31.916Z,25280
2017-06-15T07:05:31.918Z,26272
2017-06-15T07:06:31.653Z,25088
2017-06-15T07:07:31.928Z,20448
2017-06-15T07:08:31.935Z,14740
2017-06-15T07:09:31.930Z,10456
2017-06-15T07:10:31.633Z,9640
2017-06-15T07:11:31.630Z,9432
2017-06-15T07:12:31.942Z,9372
2017-06-15T07:13:31.338Z,9064
2017-06-15T07:14:31.640Z,9012
2017-06-15T07:15:31.336Z,8856
2017-06-15T07:16:31.642Z,8904
2017-06-15T07:17:31.646Z,9316
2017-06-15T07:18:31.957Z,9292
2017-06-15T07:19:31.655Z,9240
2017-06-15T07:20:31.353Z,9204
2017-06-15T07:21:31.656Z,9104
2017-06-15T07:22:31.970Z,9012
2017-06-15T07:23:31.969Z,9008
2017-06-15T07:24:31.971Z,8948
2017-06-15T07:25:31.975Z,8928
2017-06-15T07:26:31.676Z,8880
2017-06-15T07:27:31.982Z,8804
2017-06-15T07:28:31.985Z,8708
2017-06-15T07:29:31.981Z,8656
2017-06-15T07:30:31.983Z,8608
2017-06-15T07:31:31.683Z,8576
2017-06-15T07:32:31.993Z,8392
2017-06-15T07:33:31.995Z,8360
2017-06-15T07:34:31.689Z,8364
2017-06-15T07:35:31.690Z,8244
2017-06-15T07:36:31.695Z,8172
2017-06-15T07:37:31.703Z,8048
2017-06-15T07:38:31.699Z,8080
2017-06-15T07:39:31.395Z,8120
2017-06-15T07:40:31.393Z,8068
2017-06-15T07:41:31.704Z,8020
2017-06-15T07:42:31.712Z,7956
2017-06-15T07:43:31.716Z,7944
2017-06-15T07:44:32.024Z,7896
2017-06-15T07:45:31.710Z,7824
2017-06-15T07:46:31.711Z,7768
2017-06-15T07:47:31.716Z,7752
2017-06-15T07:48:32.023Z,7640
2017-06-15T07:49:32.029Z,7624
2017-06-15T07:50:31.722Z,7536
2017-06-15T07:51:31.726Z,7432
2017-06-15T07:52:32.033Z,7356
2017-06-15T07:53:32.039Z,7256
2017-06-15T07:54:31.734Z,7140
2017-06-15T07:55:32.044Z,6984
2017-06-15T07:56:32.042Z,6840
2017-06-15T07:57:32.040Z,6776
2017-06-15T07:58:32.043Z,6700
2017-06-15T07:59:31.740Z,6632
2017-06-15T08:00:32.046Z,6544
2017-06-15T08:01:32.054Z,6460
2017-06-15T08:02:32.053Z,6352
2017-06-15T08:03:32.052Z,6200
2017-06-15T08:04:32.056Z,6100
2017-06-15T08:05:31.444Z,5984
2017-06-15T08:06:31.751Z,5860
2017-06-15T08:07:31.447Z,5712
2017-06-15T08:08:32.060Z,5608
2017-06-15T08:09:32.064Z,5580
2017-06-15T08:10:32.064Z,5520
2017-06-15T08:11:32.064Z,5452
2017-06-15T08:12:32.076Z,5360
2017-06-15T08:13:31.769Z,5224
2017-06-15T08:14:32.066Z,5100
2017-06-15T08:15:31.763Z,5016
2017-06-15T08:16:31.764Z,4992
2017-06-15T08:17:32.076Z,4932
2017-06-15T08:18:32.075Z,4868
2017-06-15T08:19:32.076Z,4816
2017-06-15T08:20:31.776Z,4732
2017-06-15T08:21:31.470Z,4672
2017-06-15T08:22:32.082Z,4616
2017-06-15T08:23:31.778Z,4564
2017-06-15T08:24:32.084Z,4512
2017-06-15T08:25:31.474Z,4488
2017-06-15T08:26:32.087Z,4416
2017-06-15T08:27:32.086Z,4328
2017-06-15T08:28:32.089Z,4276
2017-06-15T08:29:31.476Z,4260
2017-06-15T08:30:31.796Z,4204
2017-06-15T08:31:32.092Z,4148
2017-06-15T08:32:31.792Z,4112
2017-06-15T08:33:31.180Z,4084
2017-06-15T08:34:32.097Z,4052
2017-06-15T08:35:31.811Z,4004
2017-06-15T08:36:32.100Z,3956
2017-06-15T08:37:31.487Z,3944
2017-06-15T08:38:31.794Z,3900
2017-06-15T08:39:31.489Z,3868
2017-06-15T08:40:31.804Z,3824
2017-06-15T08:41:32.103Z,3812
2017-06-15T08:42:31.519Z,3768
2017-06-15T08:43:32.108Z,3752
2017-06-15T08:44:31.801Z,3716
2017-06-15T08:45:32.114Z,3668
2017-06-15T08:46:31.811Z,3652
2017-06-15T08:47:32.106Z,3624
2017-06-15T08:48:32.113Z,3620
2017-06-15T08:49:31.498Z,3664
2017-06-15T08:50:31.502Z,3724
2017-06-15T08:51:31.813Z,3748
2017-06-15T08:52:31.812Z,3744
2017-06-15T08:53:32.113Z,3692
2017-06-15T08:54:31.819Z,3652
2017-06-15T08:55:32.122Z,3652
2017-06-15T08:56:31.507Z,3676
2017-06-15T08:57:31.512Z,3632
2017-06-15T08:58:32.120Z,3592
2017-06-15T08:59:31.814Z,3584
2017-06-15T09:00:31.815Z,3544
2017-06-15T09:01:31.855Z,3576
2017-06-15T09:02:32.121Z,3536
2017-06-15T09:03:32.134Z,3520
2017-06-15T09:04:32.129Z,3500
2017-06-15T09:05:32.127Z,3516
2017-06-15T09:06:32.138Z,3532
2017-06-15T09:07:32.129Z,3556
2017-06-15T09:08:32.130Z,3528
2017-06-15T09:09:31.829Z,3520
2017-06-15T09:10:31.823Z,3484
2017-06-15T09:11:31.829Z,3472
2017-06-15T09:12:32.133Z,3460
2017-06-15T09:13:32.134Z,3408
2017-06-15T09:14:31.824Z,3388
2017-06-15T09:15:31.527Z,3400
2017-06-15T09:16:32.135Z,3420
2017-06-15T09:17:31.830Z,3408
2017-06-15T09:18:31.826Z,3368
2017-06-15T09:19:32.136Z,3344
2017-06-15T09:20:32.133Z,3316
2017-06-15T09:21:32.171Z,3280
2017-06-15T09:22:31.831Z,3256
2017-06-15T09:23:31.831Z,3264
2017-06-15T09:24:32.149Z,3280
2017-06-15T09:25:31.838Z,3260
2017-06-15T09:26:31.838Z,3244
2017-06-15T09:27:32.143Z,3216
2017-06-15T09:28:32.142Z,3156
2017-06-15T09:29:31.837Z,3088
2017-06-15T09:30:31.529Z,3040
2017-06-15T09:31:32.148Z,3000
2017-06-15T09:32:31.837Z,3056
2017-06-15T09:33:32.146Z,3176
2017-06-15T09:34:31.842Z,3040
2017-06-15T09:35:32.146Z,2944
2017-06-15T09:36:31.841Z,2880
2017-06-15T09:37:31.838Z,2880
2017-06-15T09:38:31.839Z,2840
2017-06-15T09:39:32.152Z,2776
2017-06-15T09:40:31.846Z,2728
2017-06-15T09:41:31.850Z,2668
2017-06-15T09:42:31.535Z,2640
2017-06-15T09:43:31.843Z,2652
2017-06-15T09:44:31.842Z,2816
2017-06-15T09:45:31.850Z,2700
2017-06-15T09:46:31.848Z,2600
2017-06-15T09:47:31.855Z,2572
2017-06-15T09:48:32.155Z,2560
2017-06-15T09:49:31.539Z,2552
2017-06-15T09:50:32.158Z,2528
2017-06-15T09:51:31.542Z,2504
2017-06-15T09:52:31.850Z,2420
2017-06-15T09:53:32.159Z,2344
2017-06-15T09:54:31.851Z,2280
2017-06-15T09:55:32.151Z,2376
2017-06-15T09:56:32.153Z,2376
2017-06-15T09:57:32.154Z,2368
2017-06-15T09:58:31.848Z,2340
2017-06-15T09:59:31.544Z,2316
2017-06-15T10:00:32.158Z,2296
2017-06-15T10:01:31.853Z,2304
2017-06-15T10:02:31.854Z,2256
2017-06-15T10:03:31.847Z,2276
2017-06-15T10:04:31.850Z,2264
2017-06-15T10:05:31.850Z,2228
2017-06-15T10:06:32.162Z,2184
2017-06-15T10:07:32.158Z,2152
2017-06-15T10:08:31.861Z,2148
2017-06-15T10:09:31.855Z,2152
2017-06-15T10:10:32.159Z,2184
2017-06-15T10:11:32.159Z,2188
2017-06-15T10:12:32.161Z,2228
2017-06-15T10:13:32.157Z,2364
2017-06-15T10:14:32.161Z,2532
2017-06-15T10:15:32.164Z,2320
2017-06-15T10:16:31.854Z,2128
2017-06-15T10:17:32.159Z,2088
2017-06-15T10:18:32.158Z,2088
2017-06-15T10:19:32.158Z,2096
2017-06-15T10:20:31.852Z,2036
2017-06-15T10:21:32.165Z,2020
2017-06-15T10:22:31.857Z,1984
2017-06-15T10:23:31.550Z,1968
2017-06-15T10:24:32.165Z,1940
2017-06-15T10:25:31.856Z,1904
2017-06-15T10:26:31.886Z,1908
2017-06-15T10:27:31.857Z,1896
2017-06-15T10:28:31.861Z,1916
2017-06-15T10:29:32.160Z,1920
2017-06-15T10:30:32.164Z,1940
2017-06-15T10:31:32.164Z,1984
2017-06-15T10:32:32.165Z,2152
2017-06-15T10:33:32.195Z,2232
2017-06-15T10:34:32.200Z,2196
2017-06-15T10:35:32.174Z,2176
2017-06-15T10:36:32.169Z,2196
2017-06-15T10:37:31.860Z,2148
2017-06-15T10:38:31.860Z,2116
2017-06-15T10:39:32.172Z,2148
2017-06-15T10:40:31.862Z,2136
2017-06-15T10:41:31.905Z,2116
2017-06-15T10:42:32.166Z,2052
2017-06-15T10:43:32.169Z,1988
2017-06-15T10:44:31.861Z,1956
2017-06-15T10:45:32.169Z,1940
2017-06-15T10:46:32.167Z,1924
2017-06-15T10:47:31.867Z,1912
2017-06-15T10:48:32.172Z,1908
2017-06-15T10:49:32.171Z,1936
2017-06-15T10:50:31.561Z,1924
2017-06-15T10:51:32.187Z,1888
2017-06-15T10:52:31.861Z,1944
2017-06-15T10:53:32.383Z,1980
2017-06-15T10:54:32.174Z,1876
2017-06-15T10:55:32.171Z,1888
2017-06-15T10:56:31.560Z,1996
2017-06-15T10:57:32.172Z,2384
2017-06-15T10:58:31.868Z,2288
2017-06-15T10:59:31.868Z,2092
2017-06-15T11:00:32.172Z,2084
2017-06-15T11:01:32.172Z,2176
2017-06-15T11:02:32.177Z,2000
2017-06-15T11:03:32.177Z,1936
2017-06-15T11:04:31.863Z,1924
2017-06-15T11:05:32.174Z,1900
2017-06-15T11:06:31.865Z,1876
2017-06-15T11:07:31.866Z,1880
2017-06-15T11:08:31.869Z,1876
2017-06-15T11:09:31.564Z,1896
2017-06-15T11:10:31.869Z,1880
2017-06-15T11:11:32.174Z,1820
2017-06-15T11:12:32.180Z,1856
2017-06-15T11:13:32.176Z,1952
2017-06-15T11:14:32.182Z,2084
2017-06-15T11:15:31.867Z,2168
2017-06-15T11:16:32.173Z,2104
2017-06-15T11:17:31.867Z,2160
2017-06-15T11:18:31.873Z,2220
2017-06-15T11:19:31.871Z,2288
2017-06-15T11:20:31.874Z,2304
2017-06-15T11:21:32.176Z,2212
2017-06-15T11:22:32.179Z,2088
2017-06-15T11:23:31.874Z,1936
2017-06-15T11:24:32.181Z,1860
2017-06-15T11:25:32.327Z,1784
2017-06-15T11:26:31.565Z,1748
2017-06-15T11:27:31.565Z,1744
2017-06-15T11:28:31.870Z,1764
2017-06-15T11:29:31.870Z,1768
2017-06-15T11:30:32.178Z,1760
2017-06-15T11:31:32.183Z,1744
2017-06-15T11:32:31.882Z,1660
2017-06-15T11:33:31.875Z,1540
2017-06-15T11:34:32.183Z,1628
2017-06-15T11:35:32.182Z,1588
2017-06-15T11:36:31.871Z,1564
2017-06-15T11:37:32.185Z,1548
2017-06-15T11:38:32.183Z,1540
2017-06-15T11:39:32.182Z,1532
2017-06-15T11:40:32.184Z,1508
2017-06-15T11:41:31.877Z,1496
2017-06-15T11:42:31.571Z,1496
2017-06-15T11:43:31.873Z,1496
2017-06-15T11:44:31.875Z,1468
2017-06-15T11:45:31.571Z,1448
2017-06-15T11:46:31.876Z,1432
2017-06-15T11:47:31.571Z,1448
2017-06-15T11:48:32.186Z,1448
2017-06-15T11:49:32.185Z,1440
2017-06-15T11:50:32.190Z,1444
2017-06-15T11:51:32.190Z,1456
2017-06-15T11:52:32.188Z,1456
2017-06-15T11:53:31.569Z,1468
2017-06-15T11:54:31.571Z,1592
2017-06-15T11:55:32.185Z,1800
2017-06-15T11:56:32.189Z,1880
2017-06-15T11:57:31.574Z,1692
2017-06-15T11:58:31.577Z,1508
2017-06-15T11:59:31.878Z,1488
2017-06-15T12:00:32.187Z,1660
2017-06-15T12:01:31.571Z,1408
2017-06-15T12:02:32.185Z,1568
2017-06-15T12:03:31.880Z,2020
2017-06-15T12:04:31.578Z,1872
2017-06-15T12:05:31.582Z,1716
2017-06-15T12:06:32.189Z,1504
2017-06-15T12:07:31.880Z,1564
2017-06-15T12:08:32.189Z,1556
2017-06-15T12:09:31.883Z,1460
2017-06-15T12:10:31.886Z,1404
2017-06-15T12:11:32.186Z,1348
2017-06-15T12:12:32.189Z,1336
2017-06-15T12:13:31.884Z,1316
2017-06-15T12:14:31.881Z,1280
2017-06-15T12:15:31.581Z,1212
2017-06-15T12:16:31.599Z,1244
2017-06-15T12:17:31.880Z,1276
2017-06-15T12:18:31.887Z,1280
2017-06-15T12:19:31.884Z,1268
2017-06-15T12:20:31.882Z,1268
2017-06-15T12:21:32.192Z,1284
2017-06-15T12:22:31.886Z,1472
2017-06-15T12:23:31.884Z,1512
2017-06-15T12:24:32.187Z,1448
2017-06-15T12:25:32.192Z,1364
2017-06-15T12:26:32.189Z,1300
2017-06-15T12:27:31.884Z,1280
2017-06-15T12:28:31.882Z,1272
2017-06-15T12:29:31.896Z,1264
2017-06-15T12:30:32.190Z,1264
2017-06-15T12:31:32.193Z,1276
2017-06-15T12:32:31.888Z,1276
2017-06-15T12:33:31.885Z,1336
2017-06-15T12:34:31.889Z,1648
2017-06-15T12:35:32.192Z,1864
2017-06-15T12:36:31.882Z,2208
2017-06-15T12:37:32.208Z,2280
2017-06-15T12:38:31.888Z,2180
2017-06-15T12:39:31.583Z,2052
2017-06-15T12:40:31.887Z,1872
2017-06-15T12:41:31.885Z,1644
2017-06-15T12:42:31.886Z,1512
2017-06-15T12:43:31.580Z,1436
2017-06-15T12:44:32.194Z,1412
2017-06-15T12:45:32.192Z,1240
2017-06-15T12:46:32.196Z,1352
2017-06-15T12:47:32.194Z,1388
2017-06-15T12:48:31.888Z,1460
2017-06-15T12:49:32.193Z,1440
2017-06-15T12:50:31.885Z,1336
2017-06-15T12:51:32.196Z,1260
2017-06-15T12:52:31.886Z,1224
2017-06-15T12:53:31.889Z,1212
2017-06-15T12:54:32.195Z,1208
2017-06-15T12:55:31.889Z,1208
2017-06-15T12:56:32.196Z,1244
2017-06-15T12:57:31.892Z,1252
2017-06-15T12:58:31.892Z,1196
2017-06-15T12:59:32.189Z,1176
2017-06-15T13:00:31.897Z,1188
2017-06-15T13:01:32.194Z,1192
2017-06-15T13:02:32.194Z,1212
2017-06-15T13:03:32.229Z,1240
2017-06-15T13:04:32.198Z,1272
2017-06-15T13:05:32.197Z,1260
2017-06-15T13:06:31.893Z,1204
2017-06-15T13:07:32.193Z,1184
2017-06-15T13:08:31.886Z,1168
2017-06-15T13:09:31.885Z,1164
2017-06-15T13:10:31.891Z,1156
2017-06-15T13:11:32.193Z,1160
2017-06-15T13:12:31.890Z,1156
2017-06-15T13:13:32.194Z,1160
2017-06-15T13:14:32.199Z,1156
2017-06-15T13:15:32.197Z,1156
2017-06-15T13:16:32.206Z,1144
2017-06-15T13:17:31.889Z,980
2017-06-15T13:18:32.194Z,1148
2017-06-15T13:19:32.197Z,1156
2017-06-15T13:20:32.240Z,1160
2017-06-15T13:21:32.200Z,1164
2017-06-15T13:22:31.893Z,1172
2017-06-15T13:23:32.198Z,1180
2017-06-15T13:24:32.201Z,1188
2017-06-15T13:25:32.201Z,1192
2017-06-15T13:26:31.894Z,1200
2017-06-15T13:27:32.202Z,1220
2017-06-15T13:28:31.585Z,1236
2017-06-15T13:29:31.925Z,1264
2017-06-15T13:30:32.198Z,1312
2017-06-15T13:31:31.924Z,1392
2017-06-15T13:32:31.891Z,1372
2017-06-15T13:33:32.207Z,1372
2017-06-15T13:34:32.201Z,1368
2017-06-15T13:35:31.894Z,1376
2017-06-15T13:36:32.200Z,1372